sensor_id;sensor_type;location;lat;lon;timestamp;P1;durP1;ratioP1;P2;durP2;ratioP2
16689;SDS011;8458;52.220;9.884;2023-03-31T00:00:58;2.40;;;1.10;;
16689;SDS011;8458;52.220;9.884;2023-03-31T00:03:26;3.10;;;1.33;;
16689;SDS011;8458;52.220;9.884;2023-03-31T00:05:55;2.37;;;1.20;;
16689;SDS011;8458;52.220;9.884;2023-03-31T00:08:23;2.50;;;1.13;;
16689;SDS011;8458;52.220;9.884;2023-03-31T00:10:50;3.43;;;1.20;;
16689;SDS011;8458;52.220;9.884;2023-03-31T00:13:16;1.90;;;1.03;;
16689;SDS011;8458;52.220;9.884;2023-03-31T00:15:43;3.30;;;1.30;;
16689;SDS011;8458;52.220;9.884;2023-03-31T00:18:10;3.03;;;1.07;;
16689;SDS011;8458;52.220;9.884;2023-03-31T00:20:38;1.70;;;1.07;;
16689;SDS011;8458;52.220;9.884;2023-03-31T00:23:06;2.90;;;1.20;;
16689;SDS011;8458;52.220;9.884;2023-03-31T00:25:34;2.67;;;1.17;;
16689;SDS011;8458;52.220;9.884;2023-03-31T00:28:04;2.70;;;1.10;;
16689;SDS011;8458;52.220;9.884;2023-03-31T00:30:30;2.83;;;1.10;;
16689;SDS011;8458;52.220;9.884;2023-03-31T00:32:57;3.40;;;1.73;;
16689;SDS011;8458;52.220;9.884;2023-03-31T00:35:24;3.83;;;1.20;;
16689;SDS011;8458;52.220;9.884;2023-03-31T00:37:52;2.13;;;1.10;;
16689;SDS011;8458;52.220;9.884;2023-03-31T00:40:21;2.30;;;1.20;;
16689;SDS011;8458;52.220;9.884;2023-03-31T00:42:48;2.77;;;1.10;;
16689;SDS011;8458;52.220;9.884;2023-03-31T00:45:25;2.10;;;1.00;;
16689;SDS011;8458;52.220;9.884;2023-03-31T00:47:54;3.37;;;1.47;;
16689;SDS011;8458;52.220;9.884;2023-03-31T00:50:28;1.73;;;1.10;;
16689;SDS011;8458;52.220;9.884;2023-03-31T00:52:59;1.43;;;0.90;;
16689;SDS011;8458;52.220;9.884;2023-03-31T00:55:32;2.90;;;1.00;;
16689;SDS011;8458;52.220;9.884;2023-03-31T00:58:00;2.07;;;0.90;;
16689;SDS011;8458;52.220;9.884;2023-03-31T01:00:28;2.50;;;1.40;;
16689;SDS011;8458;52.220;9.884;2023-03-31T01:02:55;2.27;;;0.83;;
16689;SDS011;8458;52.220;9.884;2023-03-31T01:05:26;1.93;;;0.90;;
16689;SDS011;8458;52.220;9.884;2023-03-31T01:07:56;3.30;;;1.00;;
16689;SDS011;8458;52.220;9.884;2023-03-31T01:10:27;2.97;;;0.90;;
16689;SDS011;8458;52.220;9.884;2023-03-31T01:12:59;1.67;;;0.80;;
16689;SDS011;8458;52.220;9.884;2023-03-31T01:15:25;2.03;;;0.80;;
16689;SDS011;8458;52.220;9.884;2023-03-31T01:17:52;1.90;;;0.87;;
16689;SDS011;8458;52.220;9.884;2023-03-31T01:20:20;2.20;;;0.80;;
16689;SDS011;8458;52.220;9.884;2023-03-31T01:29:15;2.00;;;0.77;;
16689;SDS011;8458;52.220;9.884;2023-03-31T01:32:00;2.90;;;0.97;;
16689;SDS011;8458;52.220;9.884;2023-03-31T01:34:44;2.33;;;0.73;;
16689;SDS011;8458;52.220;9.884;2023-03-31T01:40:51;2.23;;;0.83;;
16689;SDS011;8458;52.220;9.884;2023-03-31T01:43:28;2.10;;;0.90;;
16689;SDS011;8458;52.220;9.884;2023-03-31T01:46:03;1.87;;;0.60;;
16689;SDS011;8458;52.220;9.884;2023-03-31T01:48:38;1.77;;;0.80;;
16689;SDS011;8458;52.220;9.884;2023-03-31T01:51:13;2.07;;;0.70;;
16689;SDS011;8458;52.220;9.884;2023-03-31T01:53:47;2.23;;;0.70;;
16689;SDS011;8458;52.220;9.884;2023-03-31T01:56:21;2.67;;;1.00;;
16689;SDS011;8458;52.220;9.884;2023-03-31T01:58:52;1.70;;;0.80;;
16689;SDS011;8458;52.220;9.884;2023-03-31T02:01:23;2.33;;;0.80;;
16689;SDS011;8458;52.220;9.884;2023-03-31T02:03:56;2.13;;;0.90;;
16689;SDS011;8458;52.220;9.884;2023-03-31T02:06:26;1.57;;;0.70;;
16689;SDS011;8458;52.220;9.884;2023-03-31T02:08:59;2.10;;;0.80;;
16689;SDS011;8458;52.220;9.884;2023-03-31T02:11:30;1.53;;;0.60;;
16689;SDS011;8458;52.220;9.884;2023-03-31T02:13:59;2.00;;;0.70;;
16689;SDS011;8458;52.220;9.884;2023-03-31T02:16:29;2.63;;;0.87;;
16689;SDS011;8458;52.220;9.884;2023-03-31T02:19:00;2.37;;;0.70;;
16689;SDS011;8458;52.220;9.884;2023-03-31T02:21:30;3.47;;;0.80;;
16689;SDS011;8458;52.220;9.884;2023-03-31T02:23:58;2.43;;;0.90;;
16689;SDS011;8458;52.220;9.884;2023-03-31T02:26:30;2.00;;;0.80;;
16689;SDS011;8458;52.220;9.884;2023-03-31T02:29:02;2.77;;;0.90;;
16689;SDS011;8458;52.220;9.884;2023-03-31T02:31:31;1.87;;;0.80;;
16689;SDS011;8458;52.220;9.884;2023-03-31T02:34:07;3.60;;;1.00;;
16689;SDS011;8458;52.220;9.884;2023-03-31T02:36:34;1.23;;;0.80;;
16689;SDS011;8458;52.220;9.884;2023-03-31T02:39:02;2.20;;;1.00;;
16689;SDS011;8458;52.220;9.884;2023-03-31T02:41:33;1.60;;;0.80;;
16689;SDS011;8458;52.220;9.884;2023-03-31T02:43:59;2.23;;;0.90;;
16689;SDS011;8458;52.220;9.884;2023-03-31T02:46:26;3.27;;;0.90;;
16689;SDS011;8458;52.220;9.884;2023-03-31T02:48:55;1.60;;;0.80;;
16689;SDS011;8458;52.220;9.884;2023-03-31T02:54:30;1.97;;;0.70;;
16689;SDS011;8458;52.220;9.884;2023-03-31T03:00:13;2.63;;;0.83;;
16689;SDS011;8458;52.220;9.884;2023-03-31T03:02:51;3.40;;;0.77;;
16689;SDS011;8458;52.220;9.884;2023-03-31T03:05:31;2.67;;;0.97;;
16689;SDS011;8458;52.220;9.884;2023-03-31T03:08:13;1.57;;;0.70;;
16689;SDS011;8458;52.220;9.884;2023-03-31T03:10:48;1.97;;;0.70;;
16689;SDS011;8458;52.220;9.884;2023-03-31T03:13:25;1.40;;;0.80;;
16689;SDS011;8458;52.220;9.884;2023-03-31T03:15:57;3.07;;;0.90;;
16689;SDS011;8458;52.220;9.884;2023-03-31T03:18:28;1.70;;;0.67;;
16689;SDS011;8458;52.220;9.884;2023-03-31T03:20:55;2.40;;;0.83;;
16689;SDS011;8458;52.220;9.884;2023-03-31T03:23:22;1.63;;;0.73;;
16689;SDS011;8458;52.220;9.884;2023-03-31T03:25:48;2.30;;;0.80;;
16689;SDS011;8458;52.220;9.884;2023-03-31T03:28:15;2.70;;;0.70;;
16689;SDS011;8458;52.220;9.884;2023-03-31T03:30:42;2.47;;;0.90;;
16689;SDS011;8458;52.220;9.884;2023-03-31T03:33:09;2.70;;;0.80;;
16689;SDS011;8458;52.220;9.884;2023-03-31T03:35:40;2.27;;;0.70;;
16689;SDS011;8458;52.220;9.884;2023-03-31T03:38:07;2.40;;;0.80;;
16689;SDS011;8458;52.220;9.884;2023-03-31T03:40:33;2.50;;;0.80;;
16689;SDS011;8458;52.220;9.884;2023-03-31T03:43:00;1.67;;;0.80;;
16689;SDS011;8458;52.220;9.884;2023-03-31T03:45:26;1.63;;;0.60;;
16689;SDS011;8458;52.220;9.884;2023-03-31T03:47:54;3.20;;;0.90;;
16689;SDS011;8458;52.220;9.884;2023-03-31T03:50:22;1.67;;;0.67;;
16689;SDS011;8458;52.220;9.884;2023-03-31T03:52:48;2.30;;;0.80;;
16689;SDS011;8458;52.220;9.884;2023-03-31T03:55:15;2.60;;;0.80;;
16689;SDS011;8458;52.220;9.884;2023-03-31T03:57:41;2.33;;;0.73;;
16689;SDS011;8458;52.220;9.884;2023-03-31T04:00:08;1.47;;;0.60;;
16689;SDS011;8458;52.220;9.884;2023-03-31T04:02:36;1.43;;;0.70;;
16689;SDS011;8458;52.220;9.884;2023-03-31T04:05:03;1.63;;;0.70;;
16689;SDS011;8458;52.220;9.884;2023-03-31T04:07:31;2.90;;;0.80;;
16689;SDS011;8458;52.220;9.884;2023-03-31T04:09:57;2.47;;;0.87;;
16689;SDS011;8458;52.220;9.884;2023-03-31T04:12:24;2.00;;;0.83;;
16689;SDS011;8458;52.220;9.884;2023-03-31T04:14:50;1.60;;;0.80;;
16689;SDS011;8458;52.220;9.884;2023-03-31T04:17:17;2.67;;;0.70;;
16689;SDS011;8458;52.220;9.884;2023-03-31T04:19:43;2.30;;;0.83;;
16689;SDS011;8458;52.220;9.884;2023-03-31T04:22:14;2.93;;;0.90;;
16689;SDS011;8458;52.220;9.884;2023-03-31T04:24:45;2.27;;;0.60;;
16689;SDS011;8458;52.220;9.884;2023-03-31T04:27:16;1.67;;;0.63;;
16689;SDS011;8458;52.220;9.884;2023-03-31T04:29:45;2.03;;;0.90;;
16689;SDS011;8458;52.220;9.884;2023-03-31T04:32:11;1.90;;;0.80;;
16689;SDS011;8458;52.220;9.884;2023-03-31T04:34:38;1.83;;;0.83;;
16689;SDS011;8458;52.220;9.884;2023-03-31T04:37:05;3.30;;;1.00;;
16689;SDS011;8458;52.220;9.884;2023-03-31T04:39:34;2.33;;;0.90;;
16689;SDS011;8458;52.220;9.884;2023-03-31T04:42:02;2.50;;;0.80;;
16689;SDS011;8458;52.220;9.884;2023-03-31T04:44:29;2.57;;;0.80;;
16689;SDS011;8458;52.220;9.884;2023-03-31T04:46:55;2.90;;;0.90;;
16689;SDS011;8458;52.220;9.884;2023-03-31T04:49:22;1.83;;;0.70;;
16689;SDS011;8458;52.220;9.884;2023-03-31T04:51:49;2.60;;;0.80;;
16689;SDS011;8458;52.220;9.884;2023-03-31T04:54:16;2.27;;;0.80;;
16689;SDS011;8458;52.220;9.884;2023-03-31T04:56:42;1.77;;;0.70;;
16689;SDS011;8458;52.220;9.884;2023-03-31T04:59:10;2.13;;;0.80;;
16689;SDS011;8458;52.220;9.884;2023-03-31T05:01:36;3.77;;;0.70;;
16689;SDS011;8458;52.220;9.884;2023-03-31T05:04:03;1.77;;;0.70;;
16689;SDS011;8458;52.220;9.884;2023-03-31T05:06:30;3.17;;;0.80;;
16689;SDS011;8458;52.220;9.884;2023-03-31T05:08:57;2.50;;;0.80;;
16689;SDS011;8458;52.220;9.884;2023-03-31T05:11:24;2.03;;;0.77;;
16689;SDS011;8458;52.220;9.884;2023-03-31T05:13:51;2.40;;;0.67;;
16689;SDS011;8458;52.220;9.884;2023-03-31T05:16:19;2.13;;;0.90;;
16689;SDS011;8458;52.220;9.884;2023-03-31T05:18:45;2.53;;;0.80;;
16689;SDS011;8458;52.220;9.884;2023-03-31T05:21:12;1.73;;;0.80;;
16689;SDS011;8458;52.220;9.884;2023-03-31T05:23:40;1.73;;;0.70;;
16689;SDS011;8458;52.220;9.884;2023-03-31T05:26:08;3.17;;;0.80;;
16689;SDS011;8458;52.220;9.884;2023-03-31T05:28:34;4.03;;;0.90;;
16689;SDS011;8458;52.220;9.884;2023-03-31T05:31:02;2.23;;;0.80;;
16689;SDS011;8458;52.220;9.884;2023-03-31T05:33:30;4.37;;;0.80;;
16689;SDS011;8458;52.220;9.884;2023-03-31T05:35:57;1.60;;;0.67;;
16689;SDS011;8458;52.220;9.884;2023-03-31T05:38:25;2.90;;;0.90;;
16689;SDS011;8458;52.220;9.884;2023-03-31T05:40:55;2.37;;;0.70;;
16689;SDS011;8458;52.220;9.884;2023-03-31T05:43:21;3.40;;;0.93;;
16689;SDS011;8458;52.220;9.884;2023-03-31T05:45:48;2.13;;;0.53;;
16689;SDS011;8458;52.220;9.884;2023-03-31T05:48:14;2.87;;;0.80;;
16689;SDS011;8458;52.220;9.884;2023-03-31T05:50:42;2.90;;;0.73;;
16689;SDS011;8458;52.220;9.884;2023-03-31T05:53:09;1.90;;;0.87;;
16689;SDS011;8458;52.220;9.884;2023-03-31T05:55:36;2.23;;;0.90;;
16689;SDS011;8458;52.220;9.884;2023-03-31T05:58:02;3.10;;;0.90;;
16689;SDS011;8458;52.220;9.884;2023-03-31T06:00:29;2.90;;;0.90;;
16689;SDS011;8458;52.220;9.884;2023-03-31T06:02:56;3.67;;;1.00;;
16689;SDS011;8458;52.220;9.884;2023-03-31T06:05:23;5.07;;;0.80;;
16689;SDS011;8458;52.220;9.884;2023-03-31T06:07:52;1.40;;;0.60;;
16689;SDS011;8458;52.220;9.884;2023-03-31T06:10:18;2.40;;;0.70;;
16689;SDS011;8458;52.220;9.884;2023-03-31T06:12:45;3.13;;;0.73;;
16689;SDS011;8458;52.220;9.884;2023-03-31T06:15:11;1.20;;;0.80;;
16689;SDS011;8458;52.220;9.884;2023-03-31T06:17:38;3.03;;;0.80;;
16689;SDS011;8458;52.220;9.884;2023-03-31T06:20:05;1.77;;;0.70;;
16689;SDS011;8458;52.220;9.884;2023-03-31T06:22:32;2.60;;;0.70;;
16689;SDS011;8458;52.220;9.884;2023-03-31T06:24:59;2.33;;;0.70;;
16689;SDS011;8458;52.220;9.884;2023-03-31T06:27:26;2.10;;;0.70;;
16689;SDS011;8458;52.220;9.884;2023-03-31T06:29:52;1.60;;;0.60;;
16689;SDS011;8458;52.220;9.884;2023-03-31T06:32:19;2.23;;;0.80;;
16689;SDS011;8458;52.220;9.884;2023-03-31T06:34:45;1.70;;;0.60;;
16689;SDS011;8458;52.220;9.884;2023-03-31T06:37:12;0.97;;;0.53;;
16689;SDS011;8458;52.220;9.884;2023-03-31T06:39:38;2.27;;;0.83;;
16689;SDS011;8458;52.220;9.884;2023-03-31T06:42:06;1.53;;;0.70;;
16689;SDS011;8458;52.220;9.884;2023-03-31T06:44:32;2.50;;;0.80;;
16689;SDS011;8458;52.220;9.884;2023-03-31T06:46:59;2.43;;;0.50;;
16689;SDS011;8458;52.220;9.884;2023-03-31T06:49:25;2.77;;;0.70;;
16689;SDS011;8458;52.220;9.884;2023-03-31T06:51:52;2.37;;;0.63;;
16689;SDS011;8458;52.220;9.884;2023-03-31T06:54:18;1.80;;;0.67;;
16689;SDS011;8458;52.220;9.884;2023-03-31T06:56:45;2.13;;;0.60;;
16689;SDS011;8458;52.220;9.884;2023-03-31T06:59:13;1.20;;;0.60;;
16689;SDS011;8458;52.220;9.884;2023-03-31T07:01:39;2.03;;;0.80;;
16689;SDS011;8458;52.220;9.884;2023-03-31T07:04:06;2.33;;;0.80;;
16689;SDS011;8458;52.220;9.884;2023-03-31T07:06:33;1.87;;;0.80;;
16689;SDS011;8458;52.220;9.884;2023-03-31T07:09:19;1.80;;;0.83;;
16689;SDS011;8458;52.220;9.884;2023-03-31T07:11:47;2.73;;;0.80;;
16689;SDS011;8458;52.220;9.884;2023-03-31T07:14:15;2.03;;;0.70;;
16689;SDS011;8458;52.220;9.884;2023-03-31T07:16:42;1.77;;;0.60;;
16689;SDS011;8458;52.220;9.884;2023-03-31T07:19:08;2.97;;;0.90;;
16689;SDS011;8458;52.220;9.884;2023-03-31T07:21:35;2.33;;;0.80;;
16689;SDS011;8458;52.220;9.884;2023-03-31T07:24:02;2.53;;;0.90;;
16689;SDS011;8458;52.220;9.884;2023-03-31T07:26:28;1.53;;;0.80;;
16689;SDS011;8458;52.220;9.884;2023-03-31T07:28:55;1.17;;;0.70;;
16689;SDS011;8458;52.220;9.884;2023-03-31T07:31:25;2.37;;;0.90;;
16689;SDS011;8458;52.220;9.884;2023-03-31T07:33:51;1.43;;;0.60;;
16689;SDS011;8458;52.220;9.884;2023-03-31T07:36:18;1.97;;;0.90;;
16689;SDS011;8458;52.220;9.884;2023-03-31T07:38:45;2.73;;;0.80;;
16689;SDS011;8458;52.220;9.884;2023-03-31T07:41:14;2.70;;;1.03;;
16689;SDS011;8458;52.220;9.884;2023-03-31T07:43:42;2.37;;;1.00;;
16689;SDS011;8458;52.220;9.884;2023-03-31T07:46:12;1.57;;;0.77;;
16689;SDS011;8458;52.220;9.884;2023-03-31T07:48:42;2.57;;;1.10;;
16689;SDS011;8458;52.220;9.884;2023-03-31T07:51:10;1.83;;;0.80;;
16689;SDS011;8458;52.220;9.884;2023-03-31T07:53:37;2.17;;;0.97;;
16689;SDS011;8458;52.220;9.884;2023-03-31T07:56:03;2.00;;;0.90;;
16689;SDS011;8458;52.220;9.884;2023-03-31T07:58:30;1.13;;;0.70;;
16689;SDS011;8458;52.220;9.884;2023-03-31T08:00:56;1.57;;;1.00;;
16689;SDS011;8458;52.220;9.884;2023-03-31T08:03:23;1.47;;;0.60;;
16689;SDS011;8458;52.220;9.884;2023-03-31T08:05:51;1.60;;;0.70;;
16689;SDS011;8458;52.220;9.884;2023-03-31T08:08:18;2.00;;;0.80;;
16689;SDS011;8458;52.220;9.884;2023-03-31T08:10:45;1.17;;;0.90;;
16689;SDS011;8458;52.220;9.884;2023-03-31T08:13:11;3.10;;;0.70;;
16689;SDS011;8458;52.220;9.884;2023-03-31T08:15:38;1.63;;;0.70;;
16689;SDS011;8458;52.220;9.884;2023-03-31T08:18:05;1.77;;;0.60;;
16689;SDS011;8458;52.220;9.884;2023-03-31T08:20:31;1.30;;;0.70;;
16689;SDS011;8458;52.220;9.884;2023-03-31T08:22:59;1.63;;;0.70;;
16689;SDS011;8458;52.220;9.884;2023-03-31T08:25:26;2.63;;;0.93;;
16689;SDS011;8458;52.220;9.884;2023-03-31T08:27:52;1.73;;;0.70;;
16689;SDS011;8458;52.220;9.884;2023-03-31T08:30:20;2.30;;;0.60;;
16689;SDS011;8458;52.220;9.884;2023-03-31T08:32:48;1.87;;;0.67;;
16689;SDS011;8458;52.220;9.884;2023-03-31T08:35:14;2.50;;;0.90;;
16689;SDS011;8458;52.220;9.884;2023-03-31T08:37:41;1.70;;;0.60;;
16689;SDS011;8458;52.220;9.884;2023-03-31T08:40:10;0.90;;;0.70;;
16689;SDS011;8458;52.220;9.884;2023-03-31T08:42:42;1.57;;;0.70;;
16689;SDS011;8458;52.220;9.884;2023-03-31T08:45:15;1.20;;;0.50;;
16689;SDS011;8458;52.220;9.884;2023-03-31T08:47:45;0.93;;;0.60;;
16689;SDS011;8458;52.220;9.884;2023-03-31T08:50:16;0.90;;;0.50;;
16689;SDS011;8458;52.220;9.884;2023-03-31T08:52:47;1.00;;;0.60;;
16689;SDS011;8458;52.220;9.884;2023-03-31T08:55:19;1.17;;;0.60;;
16689;SDS011;8458;52.220;9.884;2023-03-31T08:57:53;1.53;;;0.60;;
16689;SDS011;8458;52.220;9.884;2023-03-31T09:00:23;1.20;;;0.60;;
16689;SDS011;8458;52.220;9.884;2023-03-31T09:02:52;1.70;;;0.60;;
16689;SDS011;8458;52.220;9.884;2023-03-31T09:05:28;1.40;;;0.50;;
16689;SDS011;8458;52.220;9.884;2023-03-31T09:08:18;1.43;;;0.60;;
16689;SDS011;8458;52.220;9.884;2023-03-31T09:11:03;1.33;;;0.50;;
16689;SDS011;8458;52.220;9.884;2023-03-31T09:13:46;2.10;;;0.50;;
16689;SDS011;8458;52.220;9.884;2023-03-31T09:16:22;1.20;;;0.70;;
16689;SDS011;8458;52.220;9.884;2023-03-31T09:18:52;2.07;;;0.63;;
16689;SDS011;8458;52.220;9.884;2023-03-31T09:21:26;1.87;;;0.83;;
16689;SDS011;8458;52.220;9.884;2023-03-31T09:23:57;2.10;;;0.50;;
16689;SDS011;8458;52.220;9.884;2023-03-31T09:26:31;1.30;;;0.67;;
16689;SDS011;8458;52.220;9.884;2023-03-31T09:29:02;2.13;;;0.70;;
16689;SDS011;8458;52.220;9.884;2023-03-31T09:31:33;1.57;;;0.77;;
16689;SDS011;8458;52.220;9.884;2023-03-31T09:34:00;1.63;;;0.60;;
16689;SDS011;8458;52.220;9.884;2023-03-31T09:36:35;1.03;;;0.57;;
16689;SDS011;8458;52.220;9.884;2023-03-31T09:39:01;1.43;;;0.57;;
16689;SDS011;8458;52.220;9.884;2023-03-31T09:41:30;2.17;;;0.77;;
16689;SDS011;8458;52.220;9.884;2023-03-31T09:43:57;2.03;;;0.70;;
16689;SDS011;8458;52.220;9.884;2023-03-31T09:46:25;2.03;;;0.60;;
16689;SDS011;8458;52.220;9.884;2023-03-31T09:48:57;1.10;;;0.80;;
16689;SDS011;8458;52.220;9.884;2023-03-31T09:51:29;2.03;;;0.60;;
16689;SDS011;8458;52.220;9.884;2023-03-31T09:54:01;1.67;;;0.73;;
16689;SDS011;8458;52.220;9.884;2023-03-31T09:56:45;1.80;;;0.60;;
16689;SDS011;8458;52.220;9.884;2023-03-31T09:59:15;0.93;;;0.40;;
16689;SDS011;8458;52.220;9.884;2023-03-31T10:01:44;1.90;;;0.50;;
16689;SDS011;8458;52.220;9.884;2023-03-31T10:04:15;1.23;;;0.40;;
16689;SDS011;8458;52.220;9.884;2023-03-31T10:06:45;1.27;;;0.50;;
16689;SDS011;8458;52.220;9.884;2023-03-31T10:09:12;1.07;;;0.60;;
16689;SDS011;8458;52.220;9.884;2023-03-31T10:11:51;0.97;;;0.60;;
16689;SDS011;8458;52.220;9.884;2023-03-31T10:14:25;0.80;;;0.53;;
16689;SDS011;8458;52.220;9.884;2023-03-31T10:16:58;0.70;;;0.40;;
16689;SDS011;8458;52.220;9.884;2023-03-31T10:19:30;1.03;;;0.50;;
16689;SDS011;8458;52.220;9.884;2023-03-31T10:21:58;1.53;;;0.47;;
16689;SDS011;8458;52.220;9.884;2023-03-31T10:24:27;0.83;;;0.40;;
16689;SDS011;8458;52.220;9.884;2023-03-31T10:27:04;1.00;;;0.40;;
16689;SDS011;8458;52.220;9.884;2023-03-31T10:29:32;0.60;;;0.37;;
16689;SDS011;8458;52.220;9.884;2023-03-31T10:32:03;1.33;;;0.40;;
16689;SDS011;8458;52.220;9.884;2023-03-31T10:34:34;0.40;;;0.30;;
16689;SDS011;8458;52.220;9.884;2023-03-31T10:37:06;0.23;;;0.23;;
16689;SDS011;8458;52.220;9.884;2023-03-31T10:39:35;1.03;;;0.20;;
16689;SDS011;8458;52.220;9.884;2023-03-31T10:42:04;0.57;;;0.30;;
16689;SDS011;8458;52.220;9.884;2023-03-31T10:44:31;0.40;;;0.30;;
16689;SDS011;8458;52.220;9.884;2023-03-31T10:47:04;1.30;;;0.40;;
16689;SDS011;8458;52.220;9.884;2023-03-31T10:49:42;0.43;;;0.30;;
16689;SDS011;8458;52.220;9.884;2023-03-31T10:52:14;0.53;;;0.50;;
16689;SDS011;8458;52.220;9.884;2023-03-31T10:54:51;0.53;;;0.27;;
16689;SDS011;8458;52.220;9.884;2023-03-31T10:57:24;0.40;;;0.20;;
16689;SDS011;8458;52.220;9.884;2023-03-31T11:00:05;0.40;;;0.20;;
16689;SDS011;8458;52.220;9.884;2023-03-31T11:06:01;0.87;;;0.30;;
16689;SDS011;8458;52.220;9.884;2023-03-31T11:08:39;0.73;;;0.20;;
16689;SDS011;8458;52.220;9.884;2023-03-31T11:11:20;0.57;;;0.20;;
16689;SDS011;8458;52.220;9.884;2023-03-31T11:13:59;0.60;;;0.30;;
16689;SDS011;8458;52.220;9.884;2023-03-31T11:16:36;1.67;;;0.30;;
16689;SDS011;8458;52.220;9.884;2023-03-31T11:19:14;0.50;;;0.30;;
16689;SDS011;8458;52.220;9.884;2023-03-31T11:21:53;1.23;;;0.30;;
16689;SDS011;8458;52.220;9.884;2023-03-31T11:24:29;0.83;;;0.30;;
16689;SDS011;8458;52.220;9.884;2023-03-31T11:27:15;0.40;;;0.20;;
16689;SDS011;8458;52.220;9.884;2023-03-31T11:29:55;0.70;;;0.20;;
16689;SDS011;8458;52.220;9.884;2023-03-31T11:32:30;0.53;;;0.27;;
16689;SDS011;8458;52.220;9.884;2023-03-31T11:35:05;0.70;;;0.30;;
16689;SDS011;8458;52.220;9.884;2023-03-31T11:37:42;1.03;;;0.20;;
16689;SDS011;8458;52.220;9.884;2023-03-31T11:40:28;0.50;;;0.20;;
16689;SDS011;8458;52.220;9.884;2023-03-31T11:43:05;0.40;;;0.20;;
16689;SDS011;8458;52.220;9.884;2023-03-31T11:45:38;0.47;;;0.30;;
16689;SDS011;8458;52.220;9.884;2023-03-31T11:48:13;0.83;;;0.20;;
16689;SDS011;8458;52.220;9.884;2023-03-31T11:50:44;0.40;;;0.30;;
16689;SDS011;8458;52.220;9.884;2023-03-31T11:53:13;0.37;;;0.20;;
16689;SDS011;8458;52.220;9.884;2023-03-31T11:55:45;0.50;;;0.20;;
16689;SDS011;8458;52.220;9.884;2023-03-31T11:58:14;1.87;;;0.20;;
16689;SDS011;8458;52.220;9.884;2023-03-31T12:00:45;0.50;;;0.30;;
16689;SDS011;8458;52.220;9.884;2023-03-31T12:03:18;0.57;;;0.50;;
16689;SDS011;8458;52.220;9.884;2023-03-31T12:05:48;0.40;;;0.27;;
16689;SDS011;8458;52.220;9.884;2023-03-31T12:08:17;0.30;;;0.30;;
16689;SDS011;8458;52.220;9.884;2023-03-31T12:10:52;0.67;;;0.33;;
16689;SDS011;8458;52.220;9.884;2023-03-31T12:13:25;1.13;;;0.40;;
16689;SDS011;8458;52.220;9.884;2023-03-31T12:16:03;0.30;;;0.20;;
16689;SDS011;8458;52.220;9.884;2023-03-31T12:18:35;0.47;;;0.20;;
16689;SDS011;8458;52.220;9.884;2023-03-31T12:21:06;0.40;;;0.30;;
16689;SDS011;8458;52.220;9.884;2023-03-31T12:23:38;0.50;;;0.40;;
16689;SDS011;8458;52.220;9.884;2023-03-31T12:26:11;1.43;;;0.40;;
16689;SDS011;8458;52.220;9.884;2023-03-31T12:28:48;0.40;;;0.30;;
16689;SDS011;8458;52.220;9.884;2023-03-31T12:31:23;0.93;;;0.23;;
16689;SDS011;8458;52.220;9.884;2023-03-31T12:33:53;0.40;;;0.30;;
16689;SDS011;8458;52.220;9.884;2023-03-31T12:36:26;1.70;;;0.60;;
16689;SDS011;8458;52.220;9.884;2023-03-31T12:39:01;1.03;;;0.30;;
16689;SDS011;8458;52.220;9.884;2023-03-31T12:41:39;0.73;;;0.50;;
16689;SDS011;8458;52.220;9.884;2023-03-31T12:44:21;1.07;;;0.40;;
16689;SDS011;8458;52.220;9.884;2023-03-31T12:46:59;1.33;;;0.50;;
16689;SDS011;8458;52.220;9.884;2023-03-31T12:49:54;0.97;;;0.43;;
16689;SDS011;8458;52.220;9.884;2023-03-31T12:52:33;1.37;;;0.50;;
16689;SDS011;8458;52.220;9.884;2023-03-31T12:55:09;0.47;;;0.37;;
16689;SDS011;8458;52.220;9.884;2023-03-31T12:57:49;1.13;;;0.60;;
16689;SDS011;8458;52.220;9.884;2023-03-31T13:00:23;0.87;;;0.60;;
16689;SDS011;8458;52.220;9.884;2023-03-31T13:05:54;1.23;;;0.50;;
16689;SDS011;8458;52.220;9.884;2023-03-31T13:11:16;1.73;;;0.60;;
16689;SDS011;8458;52.220;9.884;2023-03-31T13:13:44;2.33;;;0.70;;
16689;SDS011;8458;52.220;9.884;2023-03-31T13:16:18;1.50;;;0.60;;
16689;SDS011;8458;52.220;9.884;2023-03-31T13:18:49;2.30;;;0.70;;
16689;SDS011;8458;52.220;9.884;2023-03-31T13:21:18;1.53;;;0.57;;
16689;SDS011;8458;52.220;9.884;2023-03-31T13:23:45;1.73;;;0.70;;
16689;SDS011;8458;52.220;9.884;2023-03-31T13:29:09;2.10;;;0.70;;
16689;SDS011;8458;52.220;9.884;2023-03-31T13:34:35;1.17;;;0.73;;
16689;SDS011;8458;52.220;9.884;2023-03-31T13:37:11;1.37;;;0.70;;
16689;SDS011;8458;52.220;9.884;2023-03-31T13:39:51;2.23;;;0.80;;
16689;SDS011;8458;52.220;9.884;2023-03-31T13:45:53;2.37;;;0.83;;
16689;SDS011;8458;52.220;9.884;2023-03-31T13:48:34;1.07;;;0.57;;
16689;SDS011;8458;52.220;9.884;2023-03-31T13:51:19;1.67;;;0.80;;
16689;SDS011;8458;52.220;9.884;2023-03-31T14:00:09;1.93;;;0.73;;
16689;SDS011;8458;52.220;9.884;2023-03-31T14:02:52;1.90;;;0.80;;
16689;SDS011;8458;52.220;9.884;2023-03-31T14:05:32;2.63;;;0.80;;
16689;SDS011;8458;52.220;9.884;2023-03-31T14:08:04;2.60;;;0.90;;
16689;SDS011;8458;52.220;9.884;2023-03-31T14:10:37;1.60;;;0.90;;
16689;SDS011;8458;52.220;9.884;2023-03-31T14:13:06;2.13;;;0.67;;
16689;SDS011;8458;52.220;9.884;2023-03-31T14:15:35;2.43;;;0.80;;
16689;SDS011;8458;52.220;9.884;2023-03-31T14:18:04;2.27;;;0.80;;
16689;SDS011;8458;52.220;9.884;2023-03-31T14:20:34;1.83;;;0.90;;
16689;SDS011;8458;52.220;9.884;2023-03-31T14:23:11;1.87;;;0.90;;
16689;SDS011;8458;52.220;9.884;2023-03-31T14:25:49;2.10;;;0.80;;
16689;SDS011;8458;52.220;9.884;2023-03-31T14:28:24;1.97;;;0.70;;
16689;SDS011;8458;52.220;9.884;2023-03-31T14:31:13;2.03;;;1.10;;
16689;SDS011;8458;52.220;9.884;2023-03-31T14:33:47;2.10;;;0.80;;
16689;SDS011;8458;52.220;9.884;2023-03-31T14:36:30;1.70;;;0.80;;
16689;SDS011;8458;52.220;9.884;2023-03-31T14:39:03;1.30;;;0.80;;
16689;SDS011;8458;52.220;9.884;2023-03-31T14:41:33;1.83;;;0.80;;
16689;SDS011;8458;52.220;9.884;2023-03-31T14:44:01;2.63;;;1.10;;
16689;SDS011;8458;52.220;9.884;2023-03-31T14:46:31;2.47;;;1.00;;
16689;SDS011;8458;52.220;9.884;2023-03-31T14:49:05;2.17;;;1.00;;
16689;SDS011;8458;52.220;9.884;2023-03-31T14:51:32;3.50;;;0.83;;
16689;SDS011;8458;52.220;9.884;2023-03-31T14:53:58;1.37;;;0.60;;
16689;SDS011;8458;52.220;9.884;2023-03-31T14:56:27;2.13;;;0.50;;
16689;SDS011;8458;52.220;9.884;2023-03-31T14:58:59;1.20;;;0.50;;
16689;SDS011;8458;52.220;9.884;2023-03-31T15:01:27;1.67;;;0.70;;
16689;SDS011;8458;52.220;9.884;2023-03-31T15:03:58;0.93;;;0.60;;
16689;SDS011;8458;52.220;9.884;2023-03-31T15:06:25;1.80;;;0.57;;
16689;SDS011;8458;52.220;9.884;2023-03-31T15:08:56;1.97;;;0.70;;
16689;SDS011;8458;52.220;9.884;2023-03-31T15:11:26;1.37;;;0.70;;
16689;SDS011;8458;52.220;9.884;2023-03-31T15:13:54;0.80;;;0.60;;
16689;SDS011;8458;52.220;9.884;2023-03-31T15:16:30;1.73;;;0.60;;
16689;SDS011;8458;52.220;9.884;2023-03-31T15:19:04;1.80;;;0.70;;
16689;SDS011;8458;52.220;9.884;2023-03-31T15:21:36;0.70;;;0.50;;
16689;SDS011;8458;52.220;9.884;2023-03-31T15:24:03;1.77;;;0.73;;
16689;SDS011;8458;52.220;9.884;2023-03-31T15:26:33;1.70;;;0.80;;
16689;SDS011;8458;52.220;9.884;2023-03-31T15:29:03;2.83;;;0.83;;
16689;SDS011;8458;52.220;9.884;2023-03-31T15:31:35;1.73;;;0.70;;
16689;SDS011;8458;52.220;9.884;2023-03-31T15:34:10;0.93;;;0.70;;
16689;SDS011;8458;52.220;9.884;2023-03-31T15:36:39;1.53;;;0.70;;
16689;SDS011;8458;52.220;9.884;2023-03-31T15:39:06;2.40;;;0.90;;
16689;SDS011;8458;52.220;9.884;2023-03-31T15:41:32;1.27;;;0.80;;
16689;SDS011;8458;52.220;9.884;2023-03-31T15:44:03;1.20;;;0.90;;
16689;SDS011;8458;52.220;9.884;2023-03-31T15:46:55;2.00;;;0.90;;
16689;SDS011;8458;52.220;9.884;2023-03-31T15:49:24;2.47;;;0.80;;
16689;SDS011;8458;52.220;9.884;2023-03-31T15:51:51;1.90;;;1.20;;
16689;SDS011;8458;52.220;9.884;2023-03-31T15:54:25;2.53;;;1.30;;
16689;SDS011;8458;52.220;9.884;2023-03-31T15:56:58;2.37;;;1.20;;
16689;SDS011;8458;52.220;9.884;2023-03-31T15:59:25;2.23;;;1.23;;
16689;SDS011;8458;52.220;9.884;2023-03-31T16:01:53;3.07;;;1.37;;